Time;durP1;ratioP1;P1;durP2;ratioP2;P2;SDS_P1;SDS_P2;PMS_P1;PMS_P2;Temp;Humidity;BMP_temperature;BMP_pressure;BME280_temperature;BME280_humidity;BME280_pressure;Samples;Min_cycle;Max_cycle;Signal;HPM_P1;HPM_P2
2022/11/09 00:01:19;;;;;;;5.67;5.27;;;12.90;99.90;;;;;;4884369;29;20535;-82
2022/11/09 00:03:48;;;;;;;4.80;4.50;;;12.70;99.90;;;;;;4886982;29;20498;-83
2022/11/09 00:06:17;;;;;;;5.50;5.10;;;12.70;99.90;;;;;;4885725;29;20566;-84
2022/11/09 00:08:45;;;;;;;6.03;5.53;;;12.60;99.90;;;;;;4885788;29;20563;-84
2022/11/09 00:11:14;;;;;;;5.37;5.07;;;12.50;99.90;;;;;;4886167;29;20463;-83
2022/11/09 00:13:43;;;;;;;4.67;4.47;;;12.80;99.90;;;;;;4874698;29;20621;-84
2022/11/09 00:16:14;;;;;;;4.60;4.40;;;13.00;99.90;;;;;;4876925;29;20591;-80
2022/11/09 00:18:46;;;;;;;4.10;4.00;;;13.00;99.90;;;;;;4877974;29;20963;-79
2022/11/09 00:21:18;;;;;;;4.43;4.23;;;13.20;99.90;;;;;;4878995;29;21070;-79
2022/11/09 00:23:47;;;;;;;4.80;4.50;;;13.30;99.90;;;;;;4877259;29;20485;-82
2022/11/09 00:26:17;;;;;;;4.63;4.33;;;13.30;99.90;;;;;;4885956;29;20475;-84
2022/11/09 00:28:45;;;;;;;4.67;4.37;;;13.30;99.90;;;;;;4873902;29;20789;-83
2022/11/09 00:31:15;;;;;;;4.47;4.27;;;13.30;99.90;;;;;;4881391;29;20447;-83
2022/11/09 00:33:43;;;;;;;4.40;4.20;;;13.30;99.90;;;;;;4885979;29;20566;-84
2022/11/09 00:36:12;;;;;;;4.07;3.87;;;13.30;99.90;;;;;;4887929;29;21209;-84
2022/11/09 00:38:42;;;;;;;4.53;4.17;;;13.40;99.90;;;;;;4890406;29;20878;-84
2022/11/09 00:41:11;;;;;;;5.03;4.50;;;13.40;99.90;;;;;;4885192;29;20464;-84
2022/11/09 00:43:39;;;;;;;4.13;3.93;;;13.50;99.90;;;;;;4887977;29;20452;-84
2022/11/09 00:46:08;;;;;;;4.10;3.80;;;13.40;99.90;;;;;;4887411;29;21004;-83
2022/11/09 00:48:37;;;;;;;3.77;3.57;;;13.50;99.90;;;;;;4885242;29;20498;-84
2022/11/09 00:51:06;;;;;;;4.00;3.90;;;13.50;99.90;;;;;;4884743;29;20918;-83
2022/11/09 00:53:35;;;;;;;4.13;3.93;;;13.40;99.90;;;;;;4889453;29;20565;-84
2022/11/09 00:56:07;;;;;;;4.20;4.00;;;13.50;99.90;;;;;;4888758;29;21028;-84
2022/11/09 00:58:37;;;;;;;3.97;3.87;;;13.50;99.90;;;;;;4888715;29;20504;-85
2022/11/09 01:01:09;;;;;;;3.80;3.60;;;13.50;99.90;;;;;;4884612;29;21028;-85
2022/11/09 01:03:39;;;;;;;4.37;4.17;;;13.50;99.90;;;;;;4884816;29;20461;-84
2022/11/09 01:06:07;;;;;;;3.80;3.60;;;13.50;99.90;;;;;;4888943;29;20567;-84
2022/11/09 01:08:36;;;;;;;4.47;4.27;;;13.50;99.90;;;;;;4894668;29;20974;-82
2022/11/09 01:11:09;;;;;;;4.30;4.10;;;13.60;99.90;;;;;;4886339;29;20466;-81
2022/11/09 01:13:38;;;;;;;3.93;3.73;;;13.60;99.90;;;;;;4885913;29;20511;-83
2022/11/09 01:16:08;;;;;;;4.10;3.70;;;13.60;99.90;;;;;;4886422;29;20502;-83
2022/11/09 01:18:37;;;;;;;4.13;3.80;;;13.60;99.90;;;;;;4885709;29;21038;-82
2022/11/09 01:21:07;;;;;;;3.73;3.57;;;13.50;99.90;;;;;;4883684;29;20815;-83
2022/11/09 01:23:35;;;;;;;4.23;3.93;;;13.50;99.90;;;;;;4886351;29;20850;-84
2022/11/09 01:26:07;;;;;;;4.33;4.13;;;13.50;99.90;;;;;;4882590;29;20881;-84
2022/11/09 01:28:36;;;;;;;4.47;4.17;;;13.40;99.90;;;;;;4880921;29;20466;-85
2022/11/09 01:31:06;;;;;;;4.50;4.30;;;13.50;99.90;;;;;;4878684;29;20453;-84
2022/11/09 01:33:34;;;;;;;4.40;4.10;;;13.50;99.90;;;;;;4885953;29;20523;-84
2022/11/09 01:36:04;;;;;;;4.60;4.20;;;13.50;99.90;;;;;;4881212;29;20953;-83
2022/11/09 01:38:33;;;;;;;4.13;3.83;;;13.60;99.90;;;;;;4883684;29;21127;-82
2022/11/09 01:41:01;;;;;;;4.33;3.97;;;13.50;99.90;;;;;;4882151;29;20905;-84
2022/11/09 01:43:31;;;;;;;4.30;4.10;;;13.50;99.90;;;;;;4880626;29;20478;-85
2022/11/09 01:46:03;;;;;;;3.93;3.73;;;13.50;99.90;;;;;;4882025;29;20483;-82
2022/11/09 01:48:37;;;;;;;4.87;4.53;;;13.50;99.90;;;;;;4887728;29;20456;-83
2022/11/09 01:51:09;;;;;;;4.40;4.20;;;13.40;99.90;;;;;;4889688;29;20463;-84
2022/11/09 01:53:43;;;;;;;4.00;3.80;;;13.30;99.90;;;;;;4883650;29;20461;-83
2022/11/09 01:56:13;;;;;;;4.80;4.60;;;13.40;99.90;;;;;;4887688;29;20578;-85
2022/11/09 01:58:47;;;;;;;4.60;4.40;;;13.30;99.90;;;;;;4883691;29;20466;-86
2022/11/09 02:01:17;;;;;;;4.80;4.50;;;13.30;99.90;;;;;;4885524;29;20455;-85
2022/11/09 02:03:51;;;;;;;4.70;4.50;;;13.30;99.90;;;;;;4888999;29;20522;-85
2022/11/09 02:06:22;;;;;;;4.93;4.03;;;13.40;99.90;;;;;;4887278;29;21014;-84
2022/11/09 02:08:54;;;;;;;4.33;4.13;;;13.40;99.90;;;;;;4882415;29;20487;-84
2022/11/09 02:11:23;;;;;;;4.80;4.50;;;13.50;99.90;;;;;;4883871;29;20465;-84
2022/11/09 02:13:56;;;;;;;4.93;4.73;;;13.40;99.90;;;;;;4885808;29;20871;-83
2022/11/09 02:16:26;;;;;;;4.63;4.50;;;13.50;99.90;;;;;;4886546;29;20483;-84
2022/11/09 02:18:56;;;;;;;4.50;4.20;;;13.50;99.90;;;;;;4884737;29;20529;-84
2022/11/09 02:21:28;;;;;;;4.50;4.30;;;13.50;99.90;;;;;;4890396;29;20467;-84
2022/11/09 02:23:57;;;;;;;4.70;4.40;;;13.50;99.90;;;;;;4884358;29;20463;-84
2022/11/09 02:26:30;;;;;;;4.87;4.57;;;13.50;99.90;;;;;;4885245;29;20484;-84
2022/11/09 02:28:59;;;;;;;4.77;4.57;;;13.50;99.90;;;;;;4886196;29;20546;-85
2022/11/09 02:31:33;;;;;;;4.33;4.20;;;13.50;99.90;;;;;;4900088;29;20452;-84
2022/11/09 02:34:07;;;;;;;4.20;4.10;;;13.50;99.90;;;;;;4887574;29;20458;-84
2022/11/09 02:36:37;;;;;;;5.30;4.90;;;13.50;99.90;;;;;;4886087;29;20524;-85
2022/11/09 02:39:06;;;;;;;4.87;4.43;;;13.50;99.90;;;;;;4880031;29;20448;-85
2022/11/09 02:41:39;;;;;;;3.93;3.83;;;13.50;99.90;;;;;;4884581;29;20535;-84
2022/11/09 02:44:07;;;;;;;4.40;4.20;;;13.40;99.90;;;;;;4880971;29;20535;-85
2022/11/09 02:46:37;;;;;;;4.50;4.30;;;13.30;99.90;;;;;;4882474;29;20489;-85
2022/11/09 02:49:05;;;;;;;4.87;4.60;;;13.30;99.90;;;;;;4881801;29;21003;-85
2022/11/09 02:51:33;;;;;;;4.53;4.33;;;13.30;99.90;;;;;;4885312;29;20994;-84
2022/11/09 02:54:03;;;;;;;8.00;5.63;;;13.20;99.90;;;;;;4882695;29;20939;-84
2022/11/09 02:56:31;;;;;;;5.50;5.10;;;13.20;99.90;;;;;;4883685;29;20986;-84
2022/11/09 02:58:59;;;;;;;6.00;5.60;;;13.20;99.90;;;;;;4885209;29;20479;-84
2022/11/09 03:01:27;;;;;;;4.97;4.67;;;13.20;99.90;;;;;;4878818;29;20698;-83
2022/11/09 03:03:56;;;;;;;5.93;5.53;;;13.10;99.90;;;;;;4879094;29;20466;-83
2022/11/09 03:06:33;;;;;;;5.93;5.50;;;13.10;99.90;;;;;;4884083;29;20483;-84
2022/11/09 03:09:05;;;;;;;6.60;6.30;;;13.00;99.90;;;;;;4886100;29;20455;-83
2022/11/09 03:11:33;;;;;;;6.93;6.53;;;12.90;99.90;;;;;;4886089;29;21168;-81
2022/11/09 03:14:01;;;;;;;7.03;6.60;;;12.90;99.90;;;;;;4885525;29;20463;-83
2022/11/09 03:16:30;;;;;;;6.20;5.80;;;12.90;99.90;;;;;;4886166;29;20912;-82
2022/11/09 03:18:58;;;;;;;6.63;6.33;;;12.80;1.00;;;;;;4887231;29;20463;-84
2022/11/09 03:21:26;;;;;;;6.20;6.00;;;12.80;1.00;;;;;;4886964;29;20983;-82
2022/11/09 03:23:55;;;;;;;6.10;5.90;;;12.60;51.80;;;;;;4888764;29;20523;-82
2022/11/09 03:26:24;;;;;;;8.07;7.37;;;12.60;1.00;;;;;;4887119;29;21094;-83
2022/11/09 03:28:52;;;;;;;7.30;7.00;;;12.50;1.00;;;;;;4884566;29;20498;-82
2022/11/09 03:31:20;;;;;;;8.37;7.80;;;12.50;1.00;;;;;;4884460;29;20464;-83
2022/11/09 03:33:48;;;;;;;8.27;7.83;;;12.40;99.90;;;;;;4886873;29;20525;-83
2022/11/09 03:36:16;;;;;;;8.37;7.80;;;12.30;99.90;;;;;;4885206;29;20587;-82
2022/11/09 03:38:44;;;;;;;8.00;7.70;;;12.30;99.70;;;;;;4884998;29;20465;-83
2022/11/09 03:41:13;;;;;;;7.47;7.17;;;12.30;99.90;;;;;;4885079;29;20452;-84
2022/11/09 03:43:42;;;;;;;7.90;7.57;;;12.30;5.10;;;;;;4886809;29;20466;-83
2022/11/09 03:46:10;;;;;;;8.53;7.87;;;12.30;99.90;;;;;;4886309;29;20530;-83
2022/11/09 03:48:38;;;;;;;8.47;7.87;;;12.30;1.00;;;;;;4894369;29;20468;-82
2022/11/09 03:51:06;;;;;;;8.60;8.20;;;12.30;1.00;;;;;;4890957;29;20494;-83
2022/11/09 03:53:34;;;;;;;8.60;8.20;;;12.20;99.90;;;;;;4888764;29;21159;-83
2022/11/09 03:56:03;;;;;;;8.90;8.50;;;12.30;1.00;;;;;;4885418;29;20472;-84
2022/11/09 03:58:31;;;;;;;8.97;8.57;;;12.30;1.00;;;;;;4887698;29;20463;-82
2022/11/09 04:01:00;;;;;;;9.10;8.70;;;12.30;91.40;;;;;;4883021;29;21579;-82
2022/11/09 04:03:28;;;;;;;9.53;9.03;;;12.30;99.90;;;;;;4885519;29;20537;-82
2022/11/09 04:05:58;;;;;;;8.80;8.40;;;12.30;99.90;;;;;;4885728;29;20585;-83
2022/11/09 04:08:26;;;;;;;8.37;8.07;;;12.40;99.90;;;;;;4888000;29;20465;-84
2022/11/09 04:10:54;;;;;;;8.57;8.27;;;12.40;99.90;;;;;;4888655;29;20462;-82
2022/11/09 04:13:23;;;;;;;8.97;8.40;;;12.50;6.20;;;;;;4888082;29;20463;-83
2022/11/09 04:15:51;;;;;;;9.53;9.13;;;12.40;1.00;;;;;;4889255;29;20503;-83
2022/11/09 04:18:20;;;;;;;9.60;9.20;;;12.50;1.00;;;;;;4888286;29;20475;-83
2022/11/09 04:20:49;;;;;;;9.73;9.10;;;12.40;99.90;;;;;;4889306;29;20469;-82
2022/11/09 04:23:17;;;;;;;9.60;9.23;;;12.40;1.00;;;;;;4890146;29;20482;-83
2022/11/09 04:25:45;;;;;;;9.27;8.97;;;12.40;6.40;;;;;;4895705;29;20454;-83
2022/11/09 04:28:13;;;;;;;10.07;9.47;;;12.50;1.00;;;;;;4889782;29;20581;-83
2022/11/09 04:30:42;;;;;;;10.27;9.63;;;12.40;1.00;;;;;;4891945;29;20473;-82
2022/11/09 04:33:11;;;;;;;10.03;9.53;;;12.50;99.90;;;;;;4885048;29;20467;-83
2022/11/09 04:35:40;;;;;;;9.80;9.60;;;12.40;1.00;;;;;;4890072;29;20577;-83
2022/11/09 04:38:11;;;;;;;10.50;10.10;;;12.30;1.00;;;;;;4893753;29;20546;-82
2022/11/09 04:40:39;;;;;;;11.43;10.67;;;12.30;26.20;;;;;;4886081;29;20466;-82
2022/11/09 04:43:12;;;;;;;10.70;10.30;;;12.20;99.90;;;;;;4886903;29;21006;-83
2022/11/09 04:45:40;;;;;;;10.40;10.10;;;12.10;99.90;;;;;;4888845;29;20582;-82
2022/11/09 04:48:10;;;;;;;11.60;11.00;;;12.20;1.00;;;;;;4901338;29;21057;-82
2022/11/09 04:50:40;;;;;;;11.30;10.90;;;12.10;1.00;;;;;;4885353;29;20553;-82
2022/11/09 04:53:10;;;;;;;12.10;11.60;;;12.10;1.00;;;;;;4887606;29;20478;-82
2022/11/09 04:55:39;;;;;;;11.77;11.37;;;12.10;1.00;;;;;;4881958;29;20484;-82
2022/11/09 04:58:08;;;;;;;13.00;12.43;;;12.10;1.00;;;;;;4891380;29;20512;-82
2022/11/09 05:00:36;;;;;;;13.07;12.47;;;12.00;1.00;;;;;;4889315;29;20961;-84
2022/11/09 05:03:06;;;;;;;12.00;11.60;;;12.10;1.00;;;;;;4884558;29;20463;-84
2022/11/09 05:05:35;;;;;;;12.60;12.07;;;12.20;1.00;;;;;;4893883;29;20480;-83
2022/11/09 05:08:05;;;;;;;13.43;13.03;;;12.20;1.00;;;;;;4888525;29;20832;-84
2022/11/09 05:10:34;;;;;;;13.47;12.77;;;12.10;1.00;;;;;;4890193;29;20463;-83
2022/11/09 05:13:04;;;;;;;13.60;13.10;;;12.00;1.00;;;;;;4888718;29;20819;-83
2022/11/09 05:15:33;;;;;;;13.30;12.90;;;12.10;1.00;;;;;;4886849;29;20475;-84
2022/11/09 05:18:01;;;;;;;13.83;13.20;;;12.10;1.00;;;;;;4884954;29;21112;-84
2022/11/09 05:20:30;;;;;;;14.23;13.80;;;12.20;1.00;;;;;;4884060;29;20533;-81
2022/11/09 05:25:47;;;;;;;14.30;13.80;;;12.20;1.00;;;;;;4887633;29;20490;-82
2022/11/09 05:28:15;;;;;;;14.73;14.13;;;12.10;1.00;;;;;;4901195;29;20513;-82
2022/11/09 05:30:43;;;;;;;14.47;13.93;;;12.00;1.00;;;;;;4887282;29;20968;-83
2022/11/09 05:33:11;;;;;;;14.70;14.20;;;11.90;1.00;;;;;;4887552;29;20459;-84
2022/11/09 05:35:40;;;;;;;14.20;13.70;;;11.90;1.00;;;;;;4888671;29;20540;-83
2022/11/09 05:38:08;;;;;;;14.87;14.27;;;12.00;1.00;;;;;;4899358;29;20478;-84
2022/11/09 05:40:36;;;;;;;14.67;14.17;;;12.10;1.00;;;;;;4894348;29;20476;-85
2022/11/09 05:43:05;;;;;;;14.00;13.50;;;12.10;1.00;;;;;;4891471;29;20466;-85
2022/11/09 05:45:34;;;;;;;14.10;13.50;;;12.00;1.00;;;;;;4887523;29;20474;-86
2022/11/09 05:48:11;;;;;;;14.70;14.30;;;12.10;1.00;;;;;;4887342;29;20489;-84
2022/11/09 05:50:40;;;;;;;14.70;14.10;;;12.10;1.00;;;;;;4890308;29;20522;-84
2022/11/09 05:53:09;;;;;;;14.90;14.40;;;12.00;1.00;;;;;;4891001;29;20886;-84
2022/11/09 05:55:37;;;;;;;14.93;14.40;;;12.00;1.00;;;;;;4893672;29;20489;-84
2022/11/09 05:58:07;;;;;;;15.03;14.43;;;12.10;1.00;;;;;;4890105;29;20530;-84
2022/11/09 06:00:36;;;;;;;15.17;14.63;;;12.20;1.00;;;;;;4885327;29;20464;-81
2022/11/09 06:03:05;;;;;;;15.23;14.63;;;12.30;1.00;;;;;;4878539;29;20463;-80
2022/11/09 06:05:33;;;;;;;16.67;15.60;;;12.30;1.00;;;;;;4881716;29;20467;-81
2022/11/09 06:08:05;;;;;;;15.20;14.60;;;12.30;1.00;;;;;;4880903;29;20585;-80
2022/11/09 06:10:34;;;;;;;17.73;16.90;;;12.30;1.00;;;;;;4880140;29;20562;-85
2022/11/09 06:13:02;;;;;;;23.57;21.83;;;12.20;1.00;;;;;;4882425;29;20465;-85
2022/11/09 06:15:31;;;;;;;17.53;16.80;;;12.20;1.00;;;;;;4886701;29;20467;-84
2022/11/09 06:17:59;;;;;;;17.00;16.20;;;12.20;1.00;;;;;;4886706;29;20546;-85
2022/11/09 06:20:28;;;;;;;16.80;16.20;;;12.20;1.00;;;;;;4892156;29;21059;-85
2022/11/09 06:22:58;;;;;;;16.90;16.03;;;12.20;1.00;;;;;;4881890;29;20523;-84
2022/11/09 06:25:32;;;;;;;15.80;15.30;;;12.20;1.00;;;;;;4886565;29;20856;-85
2022/11/09 06:28:00;;;;;;;17.00;16.20;;;12.10;1.00;;;;;;4884064;29;20530;-85
2022/11/09 06:30:29;;;;;;;17.23;16.40;;;12.20;1.00;;;;;;4876708;29;20466;-84
2022/11/09 06:33:02;;;;;;;16.47;15.97;;;12.20;1.00;;;;;;4892730;29;20558;-83
2022/11/09 06:35:30;;;;;;;15.70;15.10;;;12.10;1.00;;;;;;4886691;29;20514;-85
2022/11/09 06:37:59;;;;;;;16.63;15.80;;;12.10;1.00;;;;;;4883995;29;20486;-84
2022/11/09 06:40:28;;;;;;;15.77;15.17;;;12.30;1.00;;;;;;4882526;29;20463;-86
2022/11/09 06:42:58;;;;;;;16.60;15.90;;;12.20;1.00;;;;;;4881370;29;20474;-84
2022/11/09 06:45:27;;;;;;;16.60;16.00;;;12.30;1.00;;;;;;4886016;29;20472;-84
2022/11/09 06:47:56;;;;;;;16.57;15.87;;;12.30;99.90;;;;;;4883453;29;20483;-85
2022/11/09 06:50:26;;;;;;;16.20;15.60;;;12.30;99.90;;;;;;4882917;29;20469;-84
2022/11/09 06:52:57;;;;;;;17.07;16.03;;;12.30;1.00;;;;;;4883342;29;20469;-83
2022/11/09 06:55:26;;;;;;;16.20;15.50;;;12.40;99.90;;;;;;4882114;29;20505;-85
2022/11/09 06:57:54;;;;;;;16.50;15.90;;;12.30;99.90;;;;;;4886754;29;20492;-84
2022/11/09 07:00:23;;;;;;;16.00;15.30;;;12.30;99.90;;;;;;4884585;29;20547;-85
2022/11/09 07:02:51;;;;;;;16.20;15.70;;;12.30;1.00;;;;;;4884784;29;20484;-84
2022/11/09 07:05:20;;;;;;;16.30;15.70;;;12.30;1.00;;;;;;4882250;29;20466;-82
2022/11/09 07:07:50;;;;;;;18.43;17.00;;;12.40;1.00;;;;;;4891600;29;20542;-85
2022/11/09 07:10:18;;;;;;;17.63;16.90;;;12.40;1.00;;;;;;4882613;29;20463;-85
2022/11/09 07:12:46;;;;;;;16.90;16.40;;;12.30;1.00;;;;;;4880124;29;20618;-85
2022/11/09 07:15:14;;;;;;;17.60;16.30;;;12.40;1.00;;;;;;4882709;29;20467;-84
2022/11/09 07:17:43;;;;;;;18.07;17.40;;;12.40;1.00;;;;;;4887348;29;20543;-86
2022/11/09 07:20:13;;;;;;;17.30;16.70;;;12.40;1.00;;;;;;4881139;29;20466;-84
2022/11/09 07:22:41;;;;;;;19.90;18.77;;;12.40;1.00;;;;;;4885237;29;20990;-84
2022/11/09 07:25:12;;;;;;;18.93;18.03;;;12.50;1.00;;;;;;4885039;29;20499;-85
2022/11/09 07:27:41;;;;;;;19.17;18.27;;;12.50;1.00;;;;;;4887183;29;20892;-84
2022/11/09 07:30:10;;;;;;;17.93;17.20;;;12.50;1.00;;;;;;4888821;29;20528;-84
2022/11/09 07:32:39;;;;;;;17.57;16.90;;;12.50;1.00;;;;;;4887603;29;20499;-83
2022/11/09 07:35:28;;;;;;;17.07;16.40;;;12.50;1.00;;;;;;4888585;29;20475;-84
2022/11/09 07:38:00;;;;;;;18.70;17.80;;;12.50;1.00;;;;;;4892883;29;20486;-84
2022/11/09 07:40:30;;;;;;;17.97;17.20;;;12.50;1.00;;;;;;4891382;29;20458;-85
2022/11/09 07:42:59;;;;;;;18.60;17.70;;;12.60;1.00;;;;;;4889377;29;20459;-84
2022/11/09 07:45:31;;;;;;;17.30;16.67;;;12.60;1.00;;;;;;4888887;29;20458;-84
2022/11/09 07:48:01;;;;;;;17.70;16.90;;;12.60;1.00;;;;;;4890722;29;20478;-84
2022/11/09 07:50:31;;;;;;;17.03;16.43;;;12.60;1.00;;;;;;4892497;29;20481;-84
2022/11/09 07:53:00;;;;;;;17.47;16.87;;;12.50;1.00;;;;;;4890467;29;20467;-84
2022/11/09 07:55:31;;;;;;;17.20;16.50;;;12.50;1.00;;;;;;4885689;29;20465;-85
2022/11/09 07:58:01;;;;;;;16.90;16.30;;;12.50;1.00;;;;;;4883979;29;20577;-84
2022/11/09 08:00:31;;;;;;;17.67;16.73;;;12.50;1.00;;;;;;4890542;29;21086;-85
2022/11/09 08:02:59;;;;;;;17.83;16.97;;;12.50;1.00;;;;;;4891195;29;20970;-85
2022/11/09 08:05:28;;;;;;;17.80;17.10;;;12.50;1.00;;;;;;4882701;29;20537;-84
2022/11/09 08:07:58;;;;;;;18.13;17.33;;;12.50;1.00;;;;;;4887809;29;20486;-84
2022/11/09 08:10:27;;;;;;;16.77;16.17;;;12.50;1.00;;;;;;4885650;29;20869;-85
2022/11/09 08:12:59;;;;;;;17.80;16.80;;;12.50;1.00;;;;;;4880928;29;20554;-85
2022/11/09 08:15:28;;;;;;;17.40;16.70;;;12.40;1.00;;;;;;4882886;29;20531;-84
2022/11/09 08:18:00;;;;;;;17.67;16.80;;;12.50;1.00;;;;;;4884658;29;20579;-85
2022/11/09 08:20:28;;;;;;;16.80;16.13;;;12.50;1.00;;;;;;4895768;29;20456;-85
2022/11/09 08:22:56;;;;;;;16.50;15.90;;;12.50;1.00;;;;;;4888718;29;20968;-85
2022/11/09 08:25:31;;;;;;;16.23;15.63;;;12.50;1.00;;;;;;4890663;29;20794;-83
2022/11/09 08:28:00;;;;;;;16.00;15.50;;;12.60;1.00;;;;;;4889882;29;20512;-83
2022/11/09 08:30:30;;;;;;;16.07;15.57;;;12.50;1.00;;;;;;4892062;29;20830;-84
2022/11/09 08:33:00;;;;;;;16.20;15.57;;;12.50;1.00;;;;;;4880514;29;20905;-84
2022/11/09 08:35:28;;;;;;;15.90;15.40;;;12.50;1.00;;;;;;4890435;29;20491;-83
2022/11/09 08:38:00;;;;;;;16.90;16.30;;;12.50;1.00;;;;;;4892721;29;20988;-84
2022/11/09 08:40:29;;;;;;;15.67;15.20;;;12.60;1.00;;;;;;4888262;29;20545;-85
2022/11/09 08:43:03;;;;;;;15.90;15.30;;;12.60;1.00;;;;;;4884022;29;20474;-84
2022/11/09 08:45:33;;;;;;;16.20;15.70;;;12.60;1.00;;;;;;4885108;29;20777;-84
2022/11/09 08:48:02;;;;;;;16.33;15.83;;;12.60;1.00;;;;;;4888331;29;20467;-85
2022/11/09 08:50:32;;;;;;;16.30;15.80;;;12.60;1.00;;;;;;4887468;29;20546;-84
2022/11/09 08:53:01;;;;;;;15.67;15.27;;;12.70;1.00;;;;;;4891668;29;20446;-84
2022/11/09 08:55:30;;;;;;;16.23;15.80;;;12.70;1.00;;;;;;4893656;29;20492;-84
2022/11/09 08:58:00;;;;;;;15.50;15.10;;;12.80;1.00;;;;;;4895484;29;20496;-84
2022/11/09 09:00:30;;;;;;;15.67;15.20;;;12.80;1.00;;;;;;4878017;29;20602;-85
2022/11/09 09:02:58;;;;;;;15.77;15.37;;;12.80;1.00;;;;;;4892290;29;20454;-84
2022/11/09 09:05:26;;;;;;;15.60;15.20;;;12.80;1.00;;;;;;4894967;29;20980;-86
2022/11/09 09:07:54;;;;;;;15.73;15.23;;;12.80;1.00;;;;;;4890973;29;20472;-85
2022/11/09 09:10:23;;;;;;;16.10;15.60;;;12.90;1.00;;;;;;4888031;29;20547;-85
2022/11/09 09:12:51;;;;;;;15.93;15.43;;;12.90;1.00;;;;;;4888294;29;20465;-83
2022/11/09 09:15:19;;;;;;;15.73;15.23;;;12.80;1.00;;;;;;4888038;29;20468;-85
2022/11/09 09:17:49;;;;;;;15.57;15.07;;;12.90;1.00;;;;;;4883208;29;20487;-85
2022/11/09 09:20:17;;;;;;;15.50;15.10;;;12.80;1.00;;;;;;4887412;29;21368;-86
2022/11/09 09:22:45;;;;;;;15.73;15.33;;;12.90;1.00;;;;;;4888563;29;20459;-85
2022/11/09 09:25:13;;;;;;;15.77;15.30;;;12.90;1.00;;;;;;4895715;29;20477;-85
2022/11/09 09:27:43;;;;;;;15.20;14.90;;;13.00;1.00;;;;;;4885969;29;20479;-85
2022/11/09 09:30:13;;;;;;;16.23;15.73;;;13.00;1.00;;;;;;4888740;29;20468;-85
2022/11/09 09:32:41;;;;;;;15.83;15.43;;;13.00;1.00;;;;;;4887827;29;20462;-85
2022/11/09 09:35:12;;;;;;;16.13;15.63;;;13.10;1.00;;;;;;4890471;29;20561;-85
2022/11/09 09:37:40;;;;;;;16.23;15.73;;;13.20;1.00;;;;;;4887060;29;20901;-83
2022/11/09 09:40:20;;;;;;;16.50;16.00;;;13.40;1.00;;;;;;4891050;29;20479;-85
2022/11/09 09:42:49;;;;;;;16.60;16.10;;;13.40;1.00;;;;;;4878050;29;20467;-85
2022/11/09 09:45:20;;;;;;;17.57;17.07;;;13.60;1.00;;;;;;4890564;29;20468;-85
2022/11/09 09:47:53;;;;;;;17.53;17.03;;;13.80;1.00;;;;;;4893098;29;20534;-85
2022/11/09 09:50:26;;;;;;;17.30;16.60;;;13.80;1.00;;;;;;4886890;29;20458;-85
2022/11/09 09:53:00;;;;;;;17.33;16.77;;;14.00;1.00;;;;;;4885372;29;20457;-86
2022/11/09 09:55:55;;;;;;;17.13;16.53;;;13.90;1.00;;;;;;4882704;29;20460;-85
2022/11/09 09:58:26;;;;;;;18.03;17.33;;;14.10;1.00;;;;;;4883695;29;20593;-82
2022/11/09 10:00:58;;;;;;;17.10;16.40;;;14.00;1.00;;;;;;4878396;29;20466;-84
2022/11/09 10:03:27;;;;;;;17.10;16.20;;;13.90;1.00;;;;;;4883208;29;20548;-86
2022/11/09 10:06:05;;;;;;;18.10;17.20;;;13.80;1.00;;;;;;4890048;29;20463;-85
2022/11/09 10:08:44;;;;;;;16.97;16.00;;;13.80;1.00;;;;;;4888651;29;20459;-85
2022/11/09 10:11:22;;;;;;;17.60;16.90;;;13.90;1.00;;;;;;4881600;29;20500;-84
2022/11/09 10:14:20;;;;;;;17.17;16.60;;;14.00;1.00;;;;;;4882961;29;21518;-84
2022/11/09 10:16:54;;;;;;;17.40;16.90;;;14.10;99.90;;;;;;4885659;29;20520;-84
2022/11/09 10:19:34;;;;;;;17.17;16.47;;;14.30;99.90;;;;;;4884010;29;20864;-85
2022/11/09 10:22:12;;;;;;;18.33;17.53;;;14.30;99.90;;;;;;4880825;29;20544;-85
2022/11/09 10:24:49;;;;;;;18.13;17.53;;;14.40;99.90;;;;;;4886067;29;20464;-83
2022/11/09 10:27:42;;;;;;;17.50;16.90;;;14.60;1.00;;;;;;4883430;29;20497;-86
2022/11/09 10:30:14;;;;;;;18.40;17.60;;;14.50;99.90;;;;;;4881778;29;20473;-86
2022/11/09 10:32:45;;;;;;;17.87;17.17;;;14.60;99.90;;;;;;4887981;29;20461;-86
2022/11/09 10:35:20;;;;;;;17.67;17.10;;;14.40;1.00;;;;;;4891220;29;21352;-85
2022/11/09 10:37:51;;;;;;;17.50;16.90;;;14.40;1.00;;;;;;4888405;29;20469;-83
2022/11/09 10:40:23;;;;;;;17.53;16.80;;;14.40;99.90;;;;;;4886700;29;20573;-84
2022/11/09 10:42:55;;;;;;;18.70;17.67;;;14.60;1.00;;;;;;4883592;29;20468;-84
2022/11/09 10:45:32;;;;;;;17.83;16.93;;;14.50;1.00;;;;;;4881287;29;20883;-84
2022/11/09 10:48:02;;;;;;;17.70;17.10;;;14.40;1.00;;;;;;4880858;29;20483;-84
2022/11/09 10:50:33;;;;;;;17.60;17.00;;;14.30;99.90;;;;;;4891402;29;20466;-87
2022/11/09 10:53:13;;;;;;;17.97;17.10;;;14.20;99.90;;;;;;4882717;29;20493;-83
2022/11/09 10:55:55;;;;;;;17.80;17.10;;;14.20;99.90;;;;;;4887056;29;20538;-85
2022/11/09 10:58:28;;;;;;;17.90;17.20;;;14.20;1.00;;;;;;4879996;29;20606;-85
2022/11/09 11:01:02;;;;;;;17.90;17.20;;;14.20;99.90;;;;;;4881027;29;20547;-86
2022/11/09 11:03:32;;;;;;;18.10;17.23;;;14.20;99.90;;;;;;4891253;29;20470;-86
2022/11/09 11:06:02;;;;;;;17.90;17.30;;;14.20;99.90;;;;;;4886385;29;21515;-86
2022/11/09 11:08:41;;;;;;;18.07;17.37;;;14.20;99.90;;;;;;4888415;29;20558;-88
2022/11/09 11:11:23;;;;;;;18.50;17.80;;;14.20;99.90;;;;;;4882853;29;21064;-85
2022/11/09 11:14:19;;;;;;;18.43;17.63;;;14.30;99.90;;;;;;4883904;29;20548;-86
2022/11/09 11:16:51;;;;;;;18.07;17.47;;;14.20;99.90;;;;;;4887224;29;20610;-86
2022/11/09 11:19:34;;;;;;;18.70;18.00;;;14.20;99.90;;;;;;4884522;29;20489;-86
2022/11/09 11:22:26;;;;;;;18.17;17.57;;;14.20;1.00;;;;;;4879911;29;21275;-85
2022/11/09 11:24:58;;;;;;;18.47;17.87;;;14.20;99.90;;;;;;4880054;29;20510;-85
2022/11/09 11:27:36;;;;;;;18.70;18.00;;;14.20;99.90;;;;;;4863803;29;20538;-85
2022/11/09 11:30:13;;;;;;;18.47;17.57;;;14.20;99.90;;;;;;4879707;29;20474;-85
2022/11/09 11:32:42;;;;;;;18.07;17.47;;;14.30;1.00;;;;;;4878781;29;20471;-85
2022/11/09 11:35:28;;;;;;;18.73;17.83;;;14.30;99.90;;;;;;4877304;29;20480;-85
2022/11/09 11:38:09;;;;;;;18.47;17.77;;;14.20;99.90;;;;;;4878412;29;20531;-86
2022/11/09 11:40:46;;;;;;;18.00;17.40;;;14.20;99.90;;;;;;4884186;29;20490;-84
2022/11/09 11:43:26;;;;;;;17.50;17.00;;;14.10;99.90;;;;;;4881920;29;20491;-86
2022/11/09 11:46:03;;;;;;;17.73;17.03;;;14.00;99.90;;;;;;4876966;29;20884;-84
2022/11/09 11:48:55;;;;;;;17.40;16.77;;;14.10;99.90;;;;;;4886359;29;20828;-85
2022/11/09 11:51:32;;;;;;;18.23;17.40;;;14.10;1.00;;;;;;4888949;29;20514;-85
2022/11/09 11:54:09;;;;;;;17.37;16.77;;;14.10;1.00;;;;;;4888418;29;20462;-85
2022/11/09 11:56:43;;;;;;;18.13;17.53;;;14.10;99.90;;;;;;4889877;29;20486;-84
2022/11/09 11:59:47;;;;;;;18.10;17.40;;;14.10;1.00;;;;;;4885136;29;21108;-85
2022/11/09 12:02:31;;;;;;;17.93;17.23;;;14.10;99.90;;;;;;4896335;29;20491;-84
2022/11/09 12:05:28;;;;;;;18.00;17.20;;;14.20;99.90;;;;;;4877698;29;20472;-85
2022/11/09 12:08:05;;;;;;;18.47;17.67;;;14.30;99.90;;;;;;4875973;29;21093;-84
2022/11/09 12:10:46;;;;;;;18.40;17.63;;;14.30;99.90;;;;;;4882387;29;20487;-85
2022/11/09 12:13:34;;;;;;;17.60;17.00;;;14.30;99.90;;;;;;4880160;29;20722;-86
2022/11/09 12:16:08;;;;;;;17.93;17.33;;;14.40;99.90;;;;;;4883031;29;20521;-85
2022/11/09 12:18:49;;;;;;;17.63;17.03;;;14.40;96.00;;;;;;4881707;29;20467;-85
2022/11/09 12:21:20;;;;;;;18.60;17.90;;;14.50;99.90;;;;;;4876540;29;20490;-85
2022/11/09 12:24:15;;;;;;;18.43;17.83;;;14.50;1.00;;;;;;4877977;29;20460;-86
2022/11/09 12:26:55;;;;;;;18.87;18.07;;;14.50;1.00;;;;;;4878207;29;20555;-85
2022/11/09 12:29:56;;;;;;;18.60;18.00;;;14.50;1.00;;;;;;4879499;29;20466;-84
2022/11/09 12:32:31;;;;;;;17.63;16.93;;;14.50;99.90;;;;;;4882801;29;20473;-84
2022/11/09 12:35:23;;;;;;;18.20;17.53;;;14.40;1.00;;;;;;4880221;29;20539;-83
2022/11/09 12:37:59;;;;;;;18.23;17.63;;;14.60;1.00;;;;;;4881149;29;20961;-85
2022/11/09 12:40:32;;;;;;;18.60;17.93;;;14.70;99.90;;;;;;4879900;29;21132;-86
2022/11/09 12:43:10;;;;;;;18.50;17.90;;;14.70;99.90;;;;;;4885432;29;20935;-85
2022/11/09 12:45:44;;;;;;;18.50;17.90;;;14.70;1.00;;;;;;4880649;29;20469;-86
2022/11/09 12:48:21;;;;;;;18.70;18.10;;;14.60;1.00;;;;;;4882409;29;20493;-85
2022/11/09 12:50:53;;;;;;;18.63;17.90;;;14.60;1.00;;;;;;4883865;29;20452;-85
2022/11/09 12:53:28;;;;;;;18.20;17.50;;;14.60;47.90;;;;;;4883891;29;20590;-86
2022/11/09 12:56:02;;;;;;;18.70;18.00;;;14.50;25.40;;;;;;4899639;29;20561;-87
2022/11/09 12:58:33;;;;;;;18.47;17.77;;;14.60;99.90;;;;;;4887776;29;21157;-86
2022/11/09 13:01:05;;;;;;;18.00;17.40;;;14.60;74.50;;;;;;4884138;29;20494;-85
2022/11/09 13:03:37;;;;;;;18.33;17.70;;;14.70;47.80;;;;;;4888849;29;20568;-85